Details From LEBB - Bilbao
To LESO - San_Sebastian
Flight Number -
Tags generated
Created
Modified
Stats Distance 51 nm / 94 km
Max Altitude 600 ft / 183 m
Waypoints 3
Social Downloads 7
Likes 0
Share VATSIM

Download

Looking for another format? Having issues loading an existing format? Contact us
Advertisement - Login to hide

Notes

Basic altitude profile: - Ascent Rate: 2500ft/min - Ascent Speed: 250kts - Cruise Altitude: 35000ft - Cruise Speed: 420kts - Descent Rate: 1500ft/min - Descent Speed: 250kts Options: - Use NATs: yes - Use PACOTS: yes - Use low airways: yes - Use high airways: yes

Route

LEBB SSN LESO

ID Type Via Altitude Latitude Longitude Leg Dist Tot Dist Heading (true) Name
O LEBB APT - 0 ft / 0 m 43.30169˚ -2.91766˚ - 0 nm - Bilbao
SSN VOR - 600 ft / 183 m 43.31120˚ -1.83039˚ 47 nm 47 nm 89° / 90° SAN SEBASTIAN VOR-DME
O LESO APT - 0 ft / 0 m 43.35652˚ -1.79061˚ 3 nm 50 nm 33° / 33° San_Sebastian

Altitude Profile

Advertisement - Login to hide

LEBB

Details ICAO LEBB (BIO)
Name Bilbao
Region Spain
Timezone Europe/Madrid (UTC+1.0)
Stats Elevation 137 ft / 42 m (AMSL)
Location 43.301692° -2.917664°
Runways 2
Magnetic Variation 0.628° W

METAR

LEBB 181230Z VRB01KT 9999 BKN029 11/06 Q1031 NOSIG

Decode

TAF

TAF LEBB 181100Z 1812/1912 31009KT 9999 SCT020 BKN030 TX13/1815Z TN06/1908Z TEMPO 1815/1821 33015G30KT TEMPO 1812/1824 3000 RA BKN008 BKN014 PROB40 TEMPO 1821/1906 0700 BCFG VV002

Decode

Departure Runways

ID Width Length Bearing (true) Bearing (mag) Surface Threshold Offset Overrun Length
10 148 ft / 45 m 6,569 ft / 2,002 m 96.66° 97.29° Asphalt 20 ft / 6 m 184 ft / 56 m
12 148 ft / 45 m 8,539 ft / 2,603 m 116.73° 117.36° Asphalt 20 ft / 6 m 197 ft / 60 m
28 148 ft / 45 m 6,569 ft / 2,002 m 276.68° 277.31° Asphalt 23 ft / 7 m 0 ft / 0 m
30 148 ft / 45 m 8,539 ft / 2,603 m 296.75° 297.38° Asphalt 1,509 ft / 460 m 171 ft / 52 m

LESO

Details ICAO LESO (EAS)
Name San_Sebastian
Region Spain
Timezone Europe/Madrid (UTC+1.0)
Stats Elevation 14 ft / 4 m (AMSL)
Location 43.356520° -1.790611°
Runways 1
Magnetic Variation 0.296° W

METAR

LESO 181230Z 22007KT 190V260 9000 FEW012 BKN025 OVC035 10/07 Q1030

Decode

TAF

TAF LESO 181100Z 1812/1912 28009KT 9999 SCT020 BKN030 TX13/1815Z TN06/1908Z TEMPO 1815/1824 33015G30KT TEMPO 1812/1824 3000 RA BKN008 BKN014 PROB40 TEMPO 1815/1821 1400 RA BCFG BKN004 PROB40 TEMPO 1821/1906 2500 BR BKN004

Decode

Destination Runways

ID Width Length Bearing (true) Bearing (mag) Surface Threshold Offset Overrun Length
04 148 ft / 45 m 5,762 ft / 1,756 m 38.68° 38.98° Asphalt 0 ft / 0 m 0 ft / 0 m
22 148 ft / 45 m 5,762 ft / 1,756 m 218.69° 218.99° Asphalt 0 ft / 0 m 0 ft / 0 m

Popular Alternatives